createdAt,value
2018-05-21T00:00:45.368Z,962.20
2018-05-21T00:01:45.309Z,962.16
2018-05-21T00:02:45.243Z,962.12
2018-05-21T00:03:45.186Z,962.17
2018-05-21T00:04:45.123Z,962.15
2018-05-21T00:05:45.101Z,962.12
2018-05-21T00:06:45.106Z,962.15
2018-05-21T00:07:44.937Z,962.09
2018-05-21T00:08:44.876Z,962.06
2018-05-21T00:09:44.813Z,962.07
2018-05-21T00:10:44.752Z,962.08
2018-05-21T00:11:44.691Z,962.08
2018-05-21T00:12:44.628Z,962.08
2018-05-21T00:13:44.570Z,962.05
2018-05-21T00:14:44.510Z,962.02
2018-05-21T00:15:44.443Z,962.02
2018-05-21T00:16:44.447Z,962.03
2018-05-21T00:17:44.321Z,962.02
2018-05-21T00:18:44.262Z,962.05
2018-05-21T00:19:44.197Z,962.02
2018-05-21T00:20:44.136Z,962.05
2018-05-21T00:21:44.074Z,962.05
2018-05-21T00:22:44.013Z,962.04
2018-05-21T00:23:43.952Z,962.04
2018-05-21T00:24:43.895Z,962.03
2018-05-21T00:25:43.827Z,962.07
2018-05-21T00:26:43.764Z,962.02
2018-05-21T00:27:43.703Z,962.01
2018-05-21T00:28:43.643Z,962.03
2018-05-21T00:29:43.581Z,962.04
2018-05-21T00:30:43.518Z,962.06
2018-05-21T00:31:43.457Z,962.01
2018-05-21T00:32:43.394Z,962.06
2018-05-21T00:33:43.334Z,962.03
2018-05-21T00:34:43.273Z,961.96
2018-05-21T00:35:43.209Z,961.97
2018-05-21T00:36:43.147Z,961.97
2018-05-21T00:37:43.090Z,962.00
2018-05-21T00:38:43.024Z,961.96
2018-05-21T00:39:42.962Z,961.98
2018-05-21T00:40:42.901Z,961.95
2018-05-21T00:41:42.840Z,961.95
2018-05-21T00:42:42.776Z,961.89
2018-05-21T00:43:42.714Z,961.94
2018-05-21T00:44:42.653Z,961.86
2018-05-21T00:45:42.622Z,961.87
2018-05-21T00:46:42.530Z,961.91
2018-05-21T00:47:42.467Z,961.89
2018-05-21T00:48:42.407Z,961.88
2018-05-21T00:49:42.345Z,961.87
2018-05-21T00:50:42.283Z,961.89
2018-05-21T00:51:42.221Z,961.88
2018-05-21T00:52:42.163Z,961.84
2018-05-21T00:53:42.098Z,961.81
2018-05-21T00:54:42.036Z,961.79
2018-05-21T00:55:41.972Z,961.79
2018-05-21T00:56:41.943Z,961.77
2018-05-21T00:57:41.849Z,961.72
2018-05-21T00:58:41.788Z,961.77
2018-05-21T00:59:41.725Z,961.73
2018-05-21T01:00:41.670Z,961.73
2018-05-21T01:01:41.604Z,961.76
2018-05-21T01:02:41.549Z,961.73
2018-05-21T01:03:41.478Z,961.70
2018-05-21T01:04:41.415Z,961.67
2018-05-21T01:05:41.358Z,961.71
2018-05-21T01:06:41.291Z,961.71
2018-05-21T01:07:41.230Z,961.70
2018-05-21T01:08:41.168Z,961.73
2018-05-21T01:09:41.105Z,961.69
2018-05-21T01:10:41.043Z,961.67
2018-05-21T01:11:40.980Z,961.68
2018-05-21T01:12:40.919Z,961.62
2018-05-21T01:13:40.863Z,961.66
2018-05-21T01:14:40.795Z,961.68
2018-05-21T01:15:40.765Z,961.65
2018-05-21T01:16:40.670Z,961.69
2018-05-21T01:17:40.609Z,961.66
2018-05-21T01:18:40.546Z,961.68
2018-05-21T01:19:40.484Z,961.68
2018-05-21T01:20:40.423Z,961.64
2018-05-21T01:21:40.360Z,961.63
2018-05-21T01:22:40.299Z,961.65
2018-05-21T01:23:40.290Z,961.67
2018-05-21T01:24:40.178Z,961.66
2018-05-21T01:25:40.114Z,961.64
2018-05-21T01:26:40.050Z,961.69
2018-05-21T01:27:39.989Z,961.64
2018-05-21T01:28:39.925Z,961.74
2018-05-21T01:29:39.864Z,961.71
2018-05-21T01:30:39.802Z,961.73
2018-05-21T01:31:39.738Z,961.72
2018-05-21T01:32:39.677Z,961.74
2018-05-21T01:33:39.615Z,961.70
2018-05-21T01:34:39.553Z,961.71
2018-05-21T01:35:39.491Z,961.73
2018-05-21T01:36:39.427Z,961.70
2018-05-21T01:37:39.366Z,961.69
2018-05-21T01:38:39.303Z,961.66
2018-05-21T01:39:39.246Z,961.68
2018-05-21T01:40:39.181Z,961.67
2018-05-21T01:41:39.119Z,961.69
2018-05-21T01:42:39.055Z,961.64
2018-05-21T01:43:38.994Z,961.61
2018-05-21T01:44:38.932Z,961.60
2018-05-21T01:45:38.869Z,961.61
2018-05-21T01:46:38.808Z,961.58
2018-05-21T01:47:38.745Z,961.57
2018-05-21T01:48:38.685Z,961.57
2018-05-21T01:49:38.620Z,961.55
2018-05-21T01:50:38.559Z,961.54
2018-05-21T01:51:38.496Z,961.56
2018-05-21T01:52:38.435Z,961.50
2018-05-21T01:53:38.374Z,961.51
2018-05-21T01:54:38.311Z,961.49
2018-05-21T01:55:38.246Z,961.49
2018-05-21T01:56:38.186Z,961.45
2018-05-21T01:57:38.123Z,961.48
2018-05-21T01:58:38.060Z,961.50
2018-05-21T01:59:37.998Z,961.48
2018-05-21T02:00:37.937Z,961.47
2018-05-21T02:01:37.876Z,961.43
2018-05-21T02:02:37.812Z,961.43
2018-05-21T02:03:37.752Z,961.42
2018-05-21T02:04:37.688Z,961.43
2018-05-21T02:05:37.628Z,961.41
2018-05-21T02:06:37.562Z,961.43
2018-05-21T02:07:37.501Z,961.44
2018-05-21T02:08:37.528Z,961.41
2018-05-21T02:09:37.377Z,961.43
2018-05-21T02:10:37.392Z,961.45
2018-05-21T02:11:37.251Z,961.44
2018-05-21T02:12:37.188Z,961.40
2018-05-21T02:13:37.124Z,961.42
2018-05-21T02:14:37.066Z,961.45
2018-05-21T02:15:37.000Z,961.46
2018-05-21T02:16:36.938Z,961.42
2018-05-21T02:17:36.880Z,961.46
2018-05-21T02:18:36.815Z,961.44
2018-05-21T02:19:36.751Z,961.38
2018-05-21T02:20:36.690Z,961.40
2018-05-21T02:21:36.627Z,961.43
2018-05-21T02:22:36.564Z,961.41
2018-05-21T02:23:36.501Z,961.43
2018-05-21T02:24:36.438Z,961.44
2018-05-21T02:25:36.377Z,961.42
2018-05-21T02:26:36.314Z,961.42
2018-05-21T02:27:36.251Z,961.42
2018-05-21T02:28:36.188Z,961.42
2018-05-21T02:29:36.127Z,961.44
2018-05-21T02:30:36.063Z,961.47
2018-05-21T02:31:36.003Z,961.44
2018-05-21T02:32:35.941Z,961.45
2018-05-21T02:33:35.876Z,961.48
2018-05-21T02:34:35.812Z,961.50
2018-05-21T02:35:35.750Z,961.49
2018-05-21T02:36:35.686Z,961.52
2018-05-21T02:37:35.624Z,961.52
2018-05-21T02:38:35.563Z,961.52
2018-05-21T02:39:35.500Z,961.52
2018-05-21T02:40:35.436Z,961.51
2018-05-21T02:41:35.374Z,961.54
2018-05-21T02:42:35.312Z,961.51
2018-05-21T02:43:35.249Z,961.50
2018-05-21T02:44:35.188Z,961.53
2018-05-21T02:45:35.124Z,961.48
2018-05-21T02:46:35.061Z,961.51
2018-05-21T02:47:34.997Z,961.52
2018-05-21T02:48:34.935Z,961.53
2018-05-21T02:49:34.877Z,961.52
2018-05-21T02:50:34.809Z,961.52
2018-05-21T02:51:34.746Z,961.51
2018-05-21T02:52:34.685Z,961.51
2018-05-21T02:53:34.623Z,961.52
2018-05-21T02:54:34.562Z,961.54
2018-05-21T02:55:34.496Z,961.52
2018-05-21T02:56:34.433Z,961.50
2018-05-21T02:57:34.371Z,961.50
2018-05-21T02:58:34.319Z,961.49
2018-05-21T02:59:34.246Z,961.51
2018-05-21T03:00:34.183Z,961.55
2018-05-21T03:01:34.120Z,961.52
2018-05-21T03:02:34.056Z,961.52
2018-05-21T03:03:33.996Z,961.53
2018-05-21T03:04:33.933Z,961.52
2018-05-21T03:05:33.871Z,961.50
2018-05-21T03:06:33.807Z,961.50
2018-05-21T03:07:33.744Z,961.48
2018-05-21T03:08:33.682Z,961.48
2018-05-21T03:09:33.618Z,961.48
2018-05-21T03:10:33.557Z,961.48
2018-05-21T03:11:33.493Z,961.48
2018-05-21T03:12:33.431Z,961.47
2018-05-21T03:13:33.368Z,961.51
2018-05-21T03:14:33.305Z,961.47
2018-05-21T03:15:33.242Z,961.46
2018-05-21T03:16:33.181Z,961.44
2018-05-21T03:17:33.116Z,961.45
2018-05-21T03:18:33.055Z,961.45
2018-05-21T03:19:32.991Z,961.45
2018-05-21T03:20:32.929Z,961.44
2018-05-21T03:21:32.867Z,961.42
2018-05-21T03:22:32.802Z,961.46
2018-05-21T03:23:32.742Z,961.43
2018-05-21T03:24:32.678Z,961.47
2018-05-21T03:25:32.615Z,961.45
2018-05-21T03:26:32.552Z,961.46
2018-05-21T03:27:32.489Z,961.46
2018-05-21T03:28:32.428Z,961.43
2018-05-21T03:29:32.365Z,961.50
2018-05-21T03:30:32.300Z,961.52
2018-05-21T03:31:32.236Z,961.48
2018-05-21T03:32:32.176Z,961.48
2018-05-21T03:33:32.114Z,961.49
2018-05-21T03:34:32.048Z,961.47
2018-05-21T03:35:31.986Z,961.47
2018-05-21T03:36:31.928Z,961.47
2018-05-21T03:37:31.860Z,961.44
2018-05-21T03:38:31.796Z,961.46
2018-05-21T03:39:31.734Z,961.49
2018-05-21T03:40:31.671Z,961.50
2018-05-21T03:41:31.611Z,961.48
2018-05-21T03:42:31.545Z,961.47
2018-05-21T03:43:31.484Z,961.46
2018-05-21T03:44:31.419Z,961.46
2018-05-21T03:45:31.357Z,961.45
2018-05-21T03:46:31.294Z,961.44
2018-05-21T03:47:31.233Z,961.50
2018-05-21T03:48:31.172Z,961.46
2018-05-21T03:49:31.107Z,961.49
2018-05-21T03:50:31.043Z,961.45
2018-05-21T03:51:30.980Z,961.44
2018-05-21T03:52:30.917Z,961.52
2018-05-21T03:53:30.856Z,961.50
2018-05-21T03:54:30.792Z,961.50
2018-05-21T03:55:30.810Z,961.54
2018-05-21T03:56:30.665Z,961.55
2018-05-21T03:57:30.603Z,961.53
2018-05-21T03:58:30.541Z,961.56
2018-05-21T03:59:30.481Z,961.56
2018-05-21T04:00:30.441Z,961.59
2018-05-21T04:01:30.352Z,961.56
2018-05-21T04:02:30.288Z,961.56
2018-05-21T04:03:30.224Z,961.56
2018-05-21T04:04:30.250Z,961.57
2018-05-21T04:05:30.100Z,961.62
2018-05-21T04:06:30.038Z,961.57
2018-05-21T04:07:29.974Z,961.58
2018-05-21T04:08:29.915Z,961.58
2018-05-21T04:09:29.848Z,961.60
2018-05-21T04:10:29.787Z,961.60
2018-05-21T04:11:29.727Z,961.61
2018-05-21T04:12:29.659Z,961.61
2018-05-21T04:13:29.599Z,961.62
2018-05-21T04:14:29.535Z,961.61
2018-05-21T04:15:29.472Z,961.61
2018-05-21T04:16:29.408Z,961.62
2018-05-21T04:17:29.345Z,961.62
2018-05-21T04:18:29.281Z,961.62
2018-05-21T04:19:29.221Z,961.60
2018-05-21T04:20:29.162Z,961.62
2018-05-21T04:21:29.096Z,961.58
2018-05-21T04:22:29.031Z,961.57
2018-05-21T04:23:28.968Z,961.57
2018-05-21T04:24:28.905Z,961.56
2018-05-21T04:25:28.922Z,961.58
2018-05-21T04:26:28.781Z,961.55
2018-05-21T04:27:28.715Z,961.51
2018-05-21T04:28:28.654Z,961.61
2018-05-21T04:29:28.591Z,961.60
2018-05-21T04:30:28.528Z,961.61
2018-05-21T04:31:28.468Z,961.59
2018-05-21T04:32:28.403Z,961.61
2018-05-21T04:33:28.339Z,961.61
2018-05-21T04:34:28.277Z,961.61
2018-05-21T04:35:28.216Z,961.59
2018-05-21T04:36:28.174Z,961.58
2018-05-21T04:37:28.083Z,961.55
2018-05-21T04:38:28.026Z,961.57
2018-05-21T04:39:27.966Z,961.55
2018-05-21T04:40:27.900Z,961.58
2018-05-21T04:41:27.910Z,961.58
2018-05-21T04:42:27.773Z,961.64
2018-05-21T04:43:27.710Z,961.63
2018-05-21T04:44:27.646Z,961.65
2018-05-21T04:45:27.586Z,961.67
2018-05-21T04:46:27.520Z,961.68
2018-05-21T04:47:27.460Z,961.62
2018-05-21T04:48:27.396Z,961.62
2018-05-21T04:49:27.333Z,961.63
2018-05-21T04:50:27.269Z,961.60
2018-05-21T04:51:27.209Z,961.63
2018-05-21T04:52:27.146Z,961.61
2018-05-21T04:53:27.082Z,961.64
2018-05-21T04:54:27.019Z,961.62
2018-05-21T04:55:26.957Z,961.67
2018-05-21T04:56:26.893Z,961.67
2018-05-21T04:57:26.829Z,961.67
2018-05-21T04:58:26.768Z,961.70
2018-05-21T04:59:26.704Z,961.67
2018-05-21T05:00:26.646Z,961.70
2018-05-21T05:01:26.581Z,961.74
2018-05-21T05:02:26.521Z,961.72
2018-05-21T05:03:26.453Z,961.67
2018-05-21T05:04:26.395Z,961.69
2018-05-21T05:05:26.330Z,961.66
2018-05-21T05:06:26.265Z,961.67
2018-05-21T05:07:26.205Z,961.63
2018-05-21T05:08:26.140Z,961.66
2018-05-21T05:09:26.077Z,961.65
2018-05-21T05:10:26.014Z,961.66
2018-05-21T05:11:25.953Z,961.66
2018-05-21T05:12:25.888Z,961.70
2018-05-21T05:13:25.828Z,961.71
2018-05-21T05:14:25.765Z,961.68
2018-05-21T05:15:25.708Z,961.70
2018-05-21T05:16:25.638Z,961.68
2018-05-21T05:17:25.576Z,961.74
2018-05-21T05:18:25.514Z,961.70
2018-05-21T05:19:25.450Z,961.69
2018-05-21T05:20:25.385Z,961.70
2018-05-21T05:21:25.324Z,961.69
2018-05-21T05:22:25.263Z,961.76
2018-05-21T05:23:25.201Z,961.71
2018-05-21T05:24:25.137Z,961.68
2018-05-21T05:25:25.079Z,961.71
2018-05-21T05:26:25.015Z,961.73
2018-05-21T05:27:24.951Z,961.72
2018-05-21T05:28:24.888Z,961.73
2018-05-21T05:29:24.824Z,961.71
2018-05-21T05:30:24.760Z,961.72
2018-05-21T05:31:24.702Z,961.72
2018-05-21T05:32:24.637Z,961.70
2018-05-21T05:33:24.574Z,961.73
2018-05-21T05:34:24.513Z,961.73
2018-05-21T05:35:24.449Z,961.68
2018-05-21T05:36:24.386Z,961.69
2018-05-21T05:37:24.325Z,961.72
2018-05-21T05:38:24.261Z,961.68
2018-05-21T05:39:24.197Z,961.66
2018-05-21T05:40:24.138Z,961.65
2018-05-21T05:41:24.075Z,961.65
2018-05-21T05:42:24.011Z,961.65
2018-05-21T05:43:23.949Z,961.65
2018-05-21T05:44:23.888Z,961.64
2018-05-21T05:45:23.823Z,961.72
2018-05-21T05:46:23.761Z,961.67
2018-05-21T05:47:23.698Z,961.73
2018-05-21T05:48:23.637Z,961.66
2018-05-21T05:49:23.572Z,961.72
2018-05-21T05:50:23.512Z,961.69
2018-05-21T05:51:23.449Z,961.69
2018-05-21T05:52:23.386Z,961.69
2018-05-21T05:53:23.325Z,961.60
2018-05-21T05:54:23.263Z,961.61
2018-05-21T05:55:23.199Z,961.63
2018-05-21T05:56:23.138Z,961.58
2018-05-21T05:57:23.076Z,961.56
2018-05-21T05:58:23.014Z,961.61
2018-05-21T05:59:22.955Z,961.58
2018-05-21T06:00:22.886Z,961.60
2018-05-21T06:01:22.826Z,961.61
2018-05-21T06:02:22.769Z,961.64
2018-05-21T06:03:22.703Z,961.61
2018-05-21T06:04:22.644Z,961.65
2018-05-21T06:05:22.577Z,961.63
2018-05-21T06:06:22.513Z,961.57
2018-05-21T06:07:22.454Z,961.60
2018-05-21T06:08:22.387Z,961.63
2018-05-21T06:09:22.329Z,961.59
2018-05-21T06:10:22.265Z,961.62
2018-05-21T06:11:22.203Z,961.58
2018-05-21T06:12:22.142Z,961.59
2018-05-21T06:13:22.081Z,961.62
2018-05-21T06:14:22.016Z,961.61
2018-05-21T06:15:21.964Z,961.63
2018-05-21T06:16:21.893Z,961.62
2018-05-21T06:17:21.833Z,961.63
2018-05-21T06:18:21.769Z,961.61
2018-05-21T06:19:21.707Z,961.63
2018-05-21T06:20:21.645Z,961.57
2018-05-21T06:21:21.584Z,961.63
2018-05-21T06:22:21.520Z,961.64
2018-05-21T06:23:21.461Z,961.61
2018-05-21T06:24:21.399Z,961.65
2018-05-21T06:25:21.337Z,961.58
2018-05-21T06:26:21.272Z,961.56
2018-05-21T06:27:21.212Z,961.62
2018-05-21T06:28:21.149Z,961.61
2018-05-21T06:29:21.089Z,961.63
2018-05-21T06:30:21.028Z,961.61
2018-05-21T06:31:20.966Z,961.62
2018-05-21T06:32:20.944Z,961.66
2018-05-21T06:33:20.842Z,961.66
2018-05-21T06:34:20.835Z,961.63
2018-05-21T06:35:20.715Z,961.66
2018-05-21T06:36:20.655Z,961.66
2018-05-21T06:37:20.600Z,961.64
2018-05-21T06:38:20.534Z,961.62
2018-05-21T06:39:20.474Z,961.60
2018-05-21T06:40:20.410Z,961.60
2018-05-21T06:41:20.352Z,961.54
2018-05-21T06:42:20.287Z,961.60
2018-05-21T06:43:20.225Z,961.55
2018-05-21T06:44:20.165Z,961.56
2018-05-21T06:45:20.103Z,961.54
2018-05-21T06:46:20.041Z,961.51
2018-05-21T06:47:19.980Z,961.48
2018-05-21T06:48:19.921Z,961.48
2018-05-21T06:49:19.861Z,961.50
2018-05-21T06:50:19.794Z,961.50
2018-05-21T06:51:19.733Z,961.48
2018-05-21T06:52:19.673Z,961.46
2018-05-21T06:53:19.614Z,961.53
2018-05-21T06:54:19.552Z,961.52
2018-05-21T06:55:19.488Z,961.51
2018-05-21T06:56:19.430Z,961.45
2018-05-21T06:57:19.369Z,961.48
2018-05-21T06:58:19.305Z,961.48
2018-05-21T06:59:19.247Z,961.51
2018-05-21T07:00:19.189Z,961.47
2018-05-21T07:01:19.124Z,961.50
2018-05-21T07:02:19.065Z,961.50
2018-05-21T07:03:19.001Z,961.44
2018-05-21T07:04:18.940Z,961.51
2018-05-21T07:05:18.878Z,961.48
2018-05-21T07:06:18.817Z,961.46
2018-05-21T07:07:18.757Z,961.49
2018-05-21T07:08:18.695Z,961.47
2018-05-21T07:09:18.636Z,961.48
2018-05-21T07:10:18.574Z,961.43
2018-05-21T07:11:18.514Z,961.40
2018-05-21T07:12:18.452Z,961.39
2018-05-21T07:13:18.391Z,961.42
2018-05-21T07:14:18.330Z,961.40
2018-05-21T07:15:18.268Z,961.39
2018-05-21T07:16:18.208Z,961.36
2018-05-21T07:17:18.148Z,961.37
2018-05-21T07:18:18.136Z,961.37
2018-05-21T07:19:18.025Z,961.41
2018-05-21T07:20:17.965Z,961.39
2018-05-21T07:21:17.906Z,961.37
2018-05-21T07:22:17.843Z,961.35
2018-05-21T07:23:17.781Z,961.38
2018-05-21T07:24:17.723Z,961.40
2018-05-21T07:25:17.662Z,961.38
2018-05-21T07:26:17.600Z,961.39
2018-05-21T07:27:17.540Z,961.44
2018-05-21T07:28:17.478Z,961.43
2018-05-21T07:29:17.421Z,961.42
2018-05-21T07:30:17.360Z,961.38
2018-05-21T07:31:17.297Z,961.42
2018-05-21T07:32:17.237Z,961.39
2018-05-21T07:33:17.176Z,961.38
2018-05-21T07:34:17.115Z,961.36
2018-05-21T07:35:17.054Z,961.36
2018-05-21T07:36:16.995Z,961.37
2018-05-21T07:37:16.935Z,961.35
2018-05-21T07:38:16.873Z,961.38
2018-05-21T07:39:16.813Z,961.35
2018-05-21T07:40:16.753Z,961.32
2018-05-21T07:41:16.692Z,961.36
2018-05-21T07:42:16.634Z,961.34
2018-05-21T07:43:16.577Z,961.33
2018-05-21T07:44:16.511Z,961.33
2018-05-21T07:45:16.451Z,961.35
2018-05-21T07:46:16.391Z,961.37
2018-05-21T07:47:16.331Z,961.36
2018-05-21T07:48:16.272Z,961.39
2018-05-21T07:49:16.208Z,961.38
2018-05-21T07:50:16.150Z,961.36
2018-05-21T07:51:16.091Z,961.40
2018-05-21T07:52:16.033Z,961.38
2018-05-21T07:53:15.969Z,961.38
2018-05-21T07:54:15.911Z,961.34
2018-05-21T07:55:15.849Z,961.36
2018-05-21T07:56:15.787Z,961.35
2018-05-21T07:57:15.758Z,961.36
2018-05-21T07:58:15.713Z,961.39
2018-05-21T07:59:15.607Z,961.43
2018-05-21T08:00:15.552Z,961.35
2018-05-21T08:01:15.487Z,961.36
2018-05-21T08:02:15.429Z,961.34
2018-05-21T08:03:15.368Z,961.35
2018-05-21T08:04:15.310Z,961.34
2018-05-21T08:05:15.257Z,961.36
2018-05-21T08:06:15.188Z,961.28
2018-05-21T08:07:15.128Z,961.28
2018-05-21T08:08:15.069Z,961.32
2018-05-21T08:09:15.009Z,961.32
2018-05-21T08:10:14.949Z,961.32
2018-05-21T08:11:14.887Z,961.33
2018-05-21T08:12:14.830Z,961.31
2018-05-21T08:13:14.769Z,961.30
2018-05-21T08:14:14.711Z,961.33
2018-05-21T08:15:14.653Z,961.33
2018-05-21T08:16:14.591Z,961.31
2018-05-21T08:17:14.531Z,961.30
2018-05-21T08:18:14.472Z,961.30
2018-05-21T08:19:14.413Z,961.27
2018-05-21T08:20:14.352Z,961.28
2018-05-21T08:21:14.293Z,961.29
2018-05-21T08:22:14.320Z,961.26
2018-05-21T08:23:14.174Z,961.31
2018-05-21T08:24:14.114Z,961.33
2018-05-21T08:25:14.055Z,961.29
2018-05-21T08:26:13.996Z,961.29
2018-05-21T08:27:13.935Z,961.27
2018-05-21T08:28:13.876Z,961.25
2018-05-21T08:29:13.821Z,961.29
2018-05-21T08:30:13.757Z,961.30
2018-05-21T08:31:13.698Z,961.25
2018-05-21T08:32:13.641Z,961.22
2018-05-21T08:33:13.580Z,961.26
2018-05-21T08:34:13.520Z,961.24
2018-05-21T08:35:13.460Z,961.28
2018-05-21T08:36:13.402Z,961.23
2018-05-21T08:37:13.344Z,961.25
2018-05-21T08:38:13.282Z,961.23
2018-05-21T08:39:13.226Z,961.22
2018-05-21T08:40:13.164Z,961.24
2018-05-21T08:41:13.107Z,961.22
2018-05-21T08:42:13.047Z,961.23
2018-05-21T08:43:12.987Z,961.22
2018-05-21T08:44:12.927Z,961.22
2018-05-21T08:45:12.870Z,961.24
2018-05-21T08:46:12.808Z,961.25
2018-05-21T08:47:12.751Z,961.19
2018-05-21T08:48:12.694Z,961.24
2018-05-21T08:49:12.633Z,961.18
2018-05-21T08:50:12.574Z,961.18
2018-05-21T08:51:12.514Z,961.10
2018-05-21T08:52:12.456Z,961.13
2018-05-21T08:53:12.395Z,961.11
2018-05-21T08:54:12.337Z,961.13
2018-05-21T08:55:12.357Z,961.10
2018-05-21T08:56:12.219Z,961.10
2018-05-21T08:57:12.160Z,961.13
2018-05-21T08:58:12.102Z,961.14
2018-05-21T08:59:12.043Z,961.11
2018-05-21T09:00:11.985Z,961.09
2018-05-21T09:01:11.927Z,961.14
2018-05-21T09:02:11.867Z,961.14
2018-05-21T09:03:11.808Z,961.17
2018-05-21T09:04:11.755Z,961.11
2018-05-21T09:05:11.691Z,961.12
2018-05-21T09:06:11.633Z,961.16
2018-05-21T09:07:11.574Z,961.14
2018-05-21T09:08:11.519Z,961.13
2018-05-21T09:09:11.457Z,961.13
2018-05-21T09:10:11.450Z,961.10
2018-05-21T09:11:11.341Z,961.10
2018-05-21T09:12:11.283Z,961.06
2018-05-21T09:13:11.226Z,961.09
2018-05-21T09:14:11.168Z,961.09
2018-05-21T09:15:11.111Z,961.03
2018-05-21T09:16:11.049Z,961.03
2018-05-21T09:17:10.991Z,961.07
2018-05-21T09:18:10.933Z,961.06
2018-05-21T09:19:10.877Z,961.08
2018-05-21T09:20:10.818Z,961.09
2018-05-21T09:21:10.758Z,961.00
2018-05-21T09:22:10.701Z,961.04
2018-05-21T09:23:10.642Z,961.05
2018-05-21T09:24:10.585Z,961.08
2018-05-21T09:25:10.527Z,961.09
2018-05-21T09:26:10.560Z,961.08
2018-05-21T09:27:10.413Z,961.15
2018-05-21T09:28:10.355Z,961.11
2018-05-21T09:29:10.300Z,961.22
2018-05-21T09:30:10.247Z,961.17
2018-05-21T09:31:10.183Z,961.26
2018-05-21T09:32:10.127Z,961.31
2018-05-21T09:33:10.072Z,961.24
2018-05-21T09:34:10.016Z,961.18
2018-05-21T09:35:09.961Z,961.23
2018-05-21T09:36:09.906Z,961.23
2018-05-21T09:37:09.850Z,961.24
2018-05-21T09:38:09.796Z,961.18
2018-05-21T09:39:09.743Z,961.25
2018-05-21T09:40:09.689Z,961.25
2018-05-21T09:41:09.636Z,961.25
2018-05-21T09:42:09.581Z,961.26
2018-05-21T09:43:09.529Z,961.26
2018-05-21T09:44:09.475Z,961.23
2018-05-21T09:45:09.424Z,961.25
2018-05-21T09:46:09.371Z,961.25
2018-05-21T09:47:09.323Z,961.24
2018-05-21T09:48:09.334Z,961.24
2018-05-21T09:49:09.216Z,961.20
2018-05-21T09:50:09.163Z,961.27
2018-05-21T09:51:09.112Z,961.24
2018-05-21T09:52:09.061Z,961.16
2018-05-21T09:53:09.014Z,961.18
2018-05-21T09:54:08.957Z,961.20
2018-05-21T09:55:08.907Z,961.20
2018-05-21T09:56:08.859Z,961.20
2018-05-21T09:57:08.806Z,961.12
2018-05-21T09:58:08.755Z,961.17
2018-05-21T09:59:08.706Z,961.11
2018-05-21T10:00:08.657Z,961.11
2018-05-21T10:01:08.606Z,961.19
2018-05-21T10:02:08.557Z,961.20
2018-05-21T10:03:08.505Z,961.17
2018-05-21T10:04:08.456Z,961.17
2018-05-21T10:05:08.408Z,961.18
2018-05-21T10:06:08.355Z,961.16
2018-05-21T10:07:08.307Z,961.18
2018-05-21T10:08:08.256Z,961.20
2018-05-21T10:09:08.209Z,961.17
2018-05-21T10:10:08.157Z,961.15
2018-05-21T10:11:08.107Z,961.16
2018-05-21T10:12:08.114Z,961.13
2018-05-21T10:13:08.010Z,961.12
2018-05-21T10:14:07.962Z,961.17
2018-05-21T10:15:07.911Z,961.14
2018-05-21T10:16:07.865Z,961.13
2018-05-21T10:17:07.813Z,961.07
2018-05-21T10:18:07.763Z,961.04
2018-05-21T10:19:07.714Z,961.07
2018-05-21T10:20:07.666Z,961.05
2018-05-21T10:21:07.618Z,961.05
2018-05-21T10:22:07.568Z,961.06
2018-05-21T10:23:07.518Z,961.00
2018-05-21T10:24:07.468Z,960.99
2018-05-21T10:25:07.421Z,961.01
2018-05-21T10:26:07.426Z,961.03
2018-05-21T10:27:07.321Z,960.97
2018-05-21T10:28:07.273Z,960.97
2018-05-21T10:29:07.223Z,960.96
2018-05-21T10:30:07.174Z,960.95
2018-05-21T10:31:07.124Z,960.86
2018-05-21T10:32:07.086Z,960.90
2018-05-21T10:33:07.024Z,960.96
2018-05-21T10:34:06.976Z,960.87
2018-05-21T10:35:06.926Z,960.85
2018-05-21T10:36:06.878Z,960.88
2018-05-21T10:37:06.946Z,960.80
2018-05-21T10:38:06.778Z,960.84
2018-05-21T10:39:06.729Z,960.83
2018-05-21T10:40:06.679Z,960.84
2018-05-21T10:41:06.631Z,960.87
2018-05-21T10:42:06.581Z,960.80
2018-05-21T10:43:06.531Z,960.75
2018-05-21T10:44:06.480Z,960.78
2018-05-21T10:45:06.431Z,960.73
2018-05-21T10:46:06.381Z,960.73
2018-05-21T10:47:06.329Z,960.73
2018-05-21T10:48:06.281Z,960.74
2018-05-21T10:49:06.232Z,960.72
2018-05-21T10:50:06.188Z,960.72
2018-05-21T10:51:06.135Z,960.68
2018-05-21T10:52:06.081Z,960.71
2018-05-21T10:53:06.042Z,960.73
2018-05-21T10:54:05.982Z,960.74
2018-05-21T10:55:05.937Z,960.68
2018-05-21T10:56:05.886Z,960.74
2018-05-21T10:57:05.833Z,960.76
2018-05-21T10:58:05.784Z,960.71
2018-05-21T10:59:05.733Z,960.72
2018-05-21T11:00:05.684Z,960.75
2018-05-21T11:01:05.634Z,960.80
2018-05-21T11:02:05.582Z,960.69
2018-05-21T11:03:05.533Z,960.72
2018-05-21T11:04:05.486Z,960.67
2018-05-21T11:05:05.432Z,960.64
2018-05-21T11:06:05.381Z,960.65
2018-05-21T11:07:05.330Z,960.60
2018-05-21T11:08:05.280Z,960.57
2018-05-21T11:09:05.229Z,960.60
2018-05-21T11:10:05.177Z,960.57
2018-05-21T11:11:05.127Z,960.64
2018-05-21T11:12:05.169Z,960.58
2018-05-21T11:13:05.024Z,960.55
2018-05-21T11:14:04.971Z,960.56
2018-05-21T11:15:04.922Z,960.51
2018-05-21T11:16:04.873Z,960.57
2018-05-21T11:17:04.817Z,960.51
2018-05-21T11:18:04.764Z,960.53
2018-05-21T11:19:04.714Z,960.56
2018-05-21T11:20:04.663Z,960.53
2018-05-21T11:21:04.608Z,960.51
2018-05-21T11:22:04.555Z,960.51
2018-05-21T11:23:04.501Z,960.49
2018-05-21T11:24:04.450Z,960.53
2018-05-21T11:25:04.395Z,960.51
2018-05-21T11:26:04.341Z,960.53
2018-05-21T11:27:04.286Z,960.55
2018-05-21T11:28:04.234Z,960.49
2018-05-21T11:29:04.183Z,960.47
2018-05-21T11:30:04.125Z,960.48
2018-05-21T11:31:04.069Z,960.42
2018-05-21T11:32:04.038Z,960.41
2018-05-21T11:33:03.962Z,960.44
2018-05-21T11:34:03.978Z,960.40
2018-05-21T11:35:03.851Z,960.44
2018-05-21T11:36:03.799Z,960.42
2018-05-21T11:37:03.744Z,960.45
2018-05-21T11:38:03.686Z,960.46
2018-05-21T11:39:03.631Z,960.43
2018-05-21T11:40:03.577Z,960.44
2018-05-21T11:41:03.522Z,960.43
2018-05-21T11:42:03.463Z,960.40
2018-05-21T11:43:03.413Z,960.43
2018-05-21T11:44:03.356Z,960.39
2018-05-21T11:45:03.300Z,960.40
2018-05-21T11:46:03.242Z,960.35
2018-05-21T11:47:03.189Z,960.35
2018-05-21T11:48:03.134Z,960.32
2018-05-21T11:49:03.079Z,960.34
2018-05-21T11:50:03.021Z,960.32
2018-05-21T11:51:03.000Z,960.27
2018-05-21T11:52:02.914Z,960.29
2018-05-21T11:53:02.857Z,960.31
2018-05-21T11:54:02.797Z,960.25
2018-05-21T11:55:02.742Z,960.22
2018-05-21T11:56:02.689Z,960.25
2018-05-21T11:57:02.630Z,960.23
2018-05-21T11:58:02.581Z,960.25
2018-05-21T11:59:02.518Z,960.22
2018-05-21T12:00:02.466Z,960.21
2018-05-21T12:01:02.406Z,960.21
2018-05-21T12:02:02.370Z,960.22
2018-05-21T12:03:02.299Z,960.15
2018-05-21T12:04:02.239Z,960.18
2018-05-21T12:05:02.182Z,960.25
2018-05-21T12:06:02.127Z,960.17
2018-05-21T12:07:02.069Z,960.16
2018-05-21T12:08:02.018Z,960.17
2018-05-21T12:09:01.956Z,960.14
2018-05-21T12:10:01.900Z,960.15
2018-05-21T12:11:01.845Z,960.16
2018-05-21T12:12:01.795Z,960.12
2018-05-21T12:13:01.747Z,960.12
2018-05-21T12:14:01.677Z,960.14
2018-05-21T12:15:01.626Z,960.16
2018-05-21T12:16:01.563Z,960.12
2018-05-21T12:17:01.508Z,960.09
2018-05-21T12:18:01.448Z,960.10
2018-05-21T12:19:01.394Z,960.06
2018-05-21T12:20:01.342Z,960.08
2018-05-21T12:21:01.287Z,960.03
2018-05-21T12:22:01.224Z,960.08
2018-05-21T12:23:01.166Z,960.04
2018-05-21T12:24:01.113Z,960.08
2018-05-21T12:25:01.064Z,960.00
2018-05-21T12:26:01.004Z,959.97
2018-05-21T12:27:00.942Z,959.99
2018-05-21T12:28:00.883Z,959.96